createdAt,value
2023-01-15T00:01:36.936Z,5.30
2023-01-15T00:04:06.007Z,5.20
2023-01-15T00:06:37.250Z,5.20
2023-01-15T00:09:05.304Z,5.30
2023-01-15T00:11:32.072Z,4.50
2023-01-15T00:13:59.209Z,5.30
2023-01-15T00:16:27.427Z,5.10
2023-01-15T00:18:56.385Z,5.10
2023-01-15T00:21:25.291Z,5.40
2023-01-15T00:24:11.221Z,5.20
2023-01-15T00:26:59.369Z,5.20
2023-01-15T00:29:27.190Z,5.20
2023-01-15T00:32:28.077Z,5.10
2023-01-15T00:34:55.134Z,5.00
2023-01-15T00:37:22.161Z,5.10
2023-01-15T00:39:49.108Z,5.10
2023-01-15T00:42:17.808Z,5.20
2023-01-15T00:44:45.034Z,5.10
2023-01-15T00:47:15.075Z,5.10
2023-01-15T00:49:43.492Z,4.90
2023-01-15T00:52:12.090Z,5.10
2023-01-15T00:54:39.287Z,5.10
2023-01-15T00:57:06.174Z,5.00
2023-01-15T00:59:33.086Z,4.90
2023-01-15T01:02:00.027Z,4.90
2023-01-15T01:04:26.970Z,4.80
2023-01-15T01:06:54.267Z,4.90
2023-01-15T01:09:21.285Z,5.00
2023-01-15T01:11:49.872Z,4.90
2023-01-15T01:14:16.896Z,4.90
2023-01-15T01:16:44.407Z,6.50
2023-01-15T01:19:15.778Z,5.10
2023-01-15T01:21:44.687Z,4.80
2023-01-15T01:24:13.594Z,4.80
2023-01-15T01:26:40.541Z,4.80
2023-01-15T01:29:07.526Z,4.70
2023-01-15T01:31:34.336Z,4.80
2023-01-15T01:34:01.147Z,4.70
2023-01-15T01:36:31.000Z,4.80
2023-01-15T01:38:58.352Z,4.80
2023-01-15T01:41:26.145Z,4.70
2023-01-15T01:44:00.148Z,4.60
2023-01-15T01:46:28.862Z,4.70
2023-01-15T01:49:01.047Z,4.60
2023-01-15T01:51:32.231Z,4.60
2023-01-15T01:54:00.531Z,4.60
2023-01-15T01:56:27.793Z,4.70
2023-01-15T01:58:56.314Z,4.60
2023-01-15T02:01:24.993Z,4.60
2023-01-15T02:03:53.234Z,4.50
2023-01-15T02:06:20.215Z,4.60
2023-01-15T02:08:47.097Z,4.50
2023-01-15T02:11:18.789Z,4.60
2023-01-15T02:14:09.498Z,4.60
2023-01-15T02:16:39.317Z,4.60
2023-01-15T02:19:48.872Z,4.60
2023-01-15T02:22:28.028Z,4.50
2023-01-15T02:25:09.611Z,4.50
2023-01-15T02:27:39.607Z,4.50
2023-01-15T02:30:23.933Z,4.40
2023-01-15T02:33:04.988Z,4.60
2023-01-15T02:35:39.976Z,4.40
2023-01-15T02:38:11.380Z,4.50
2023-01-15T02:40:40.013Z,4.50
2023-01-15T02:43:08.543Z,4.60
2023-01-15T02:45:39.377Z,4.50
2023-01-15T02:48:12.228Z,4.40
2023-01-15T02:51:05.357Z,4.50
2023-01-15T02:53:36.005Z,4.50
2023-01-15T02:56:11.604Z,4.50
2023-01-15T02:58:41.476Z,4.40
2023-01-15T03:01:17.083Z,4.40
2023-01-15T03:03:55.669Z,4.50
2023-01-15T03:06:35.768Z,4.50
2023-01-15T03:09:02.799Z,4.40
2023-01-15T03:11:34.061Z,4.30
2023-01-15T03:14:27.536Z,4.40
2023-01-15T03:17:01.389Z,4.40
2023-01-15T03:19:37.087Z,4.30
2023-01-15T03:22:14.469Z,4.40
2023-01-15T03:24:52.106Z,4.50
2023-01-15T03:27:20.132Z,4.30
2023-01-15T03:29:50.698Z,4.30
2023-01-15T03:32:20.101Z,4.30
2023-01-15T03:34:52.833Z,4.20
2023-01-15T03:37:21.330Z,4.30
2023-01-15T03:39:48.269Z,4.30
2023-01-15T03:42:15.052Z,4.50
2023-01-15T03:45:00.323Z,4.60
2023-01-15T03:47:42.370Z,4.60
2023-01-15T03:50:27.851Z,4.70
2023-01-15T03:53:06.297Z,3.70
2023-01-15T03:55:45.405Z,4.60
2023-01-15T03:58:27.265Z,4.70
2023-01-15T04:01:00.476Z,4.60
2023-01-15T04:03:30.743Z,4.70
2023-01-15T04:06:01.134Z,4.50
2023-01-15T04:08:31.532Z,4.50
2023-01-15T04:11:00.520Z,4.50
2023-01-15T04:13:30.866Z,4.50
2023-01-15T04:15:58.958Z,4.60
2023-01-15T04:18:26.284Z,4.40
2023-01-15T04:20:54.737Z,4.60
2023-01-15T04:23:22.333Z,4.50
2023-01-15T04:25:49.131Z,4.50
2023-01-15T04:28:15.928Z,4.60
2023-01-15T04:30:43.545Z,4.70
2023-01-15T04:33:11.151Z,4.80
2023-01-15T04:35:38.815Z,4.70
2023-01-15T04:38:05.651Z,4.80
2023-01-15T04:40:50.885Z,4.70
2023-01-15T04:43:36.044Z,4.90
2023-01-15T04:46:02.849Z,4.80
2023-01-15T04:48:31.452Z,4.80
2023-01-15T04:51:01.956Z,4.60
2023-01-15T04:53:28.683Z,4.50
2023-01-15T04:56:02.152Z,4.50
2023-01-15T04:58:29.600Z,4.50
2023-01-15T05:00:56.804Z,4.60
2023-01-15T05:03:23.919Z,4.60
2023-01-15T05:05:50.756Z,4.50
2023-01-15T05:08:17.602Z,4.60
2023-01-15T05:10:44.547Z,4.60
2023-01-15T05:13:11.435Z,4.60
2023-01-15T05:15:40.691Z,4.50
2023-01-15T05:18:07.648Z,4.50
2023-01-15T05:20:37.276Z,4.90
2023-01-15T05:23:04.103Z,4.60
2023-01-15T05:25:30.892Z,4.50
2023-01-15T05:27:57.709Z,4.50
2023-01-15T05:30:24.723Z,4.80
2023-01-15T05:32:51.638Z,4.60
2023-01-15T05:35:18.478Z,4.60
2023-01-15T05:37:45.211Z,4.60
2023-01-15T05:40:12.669Z,4.50
2023-01-15T05:42:39.451Z,4.40
2023-01-15T05:45:06.707Z,4.40
2023-01-15T05:47:35.727Z,4.20
2023-01-15T05:50:02.672Z,4.40
2023-01-15T05:52:29.406Z,4.30
2023-01-15T05:54:56.160Z,4.40
2023-01-15T05:57:22.953Z,4.30
2023-01-15T05:59:50.492Z,4.40
2023-01-15T06:02:17.254Z,4.40
2023-01-15T06:04:44.070Z,4.40
2023-01-15T06:07:10.947Z,4.40
2023-01-15T06:09:38.090Z,4.40
2023-01-15T06:12:05.286Z,4.40
2023-01-15T06:14:32.121Z,4.50
2023-01-15T06:16:58.853Z,4.60
2023-01-15T06:19:25.758Z,4.60
2023-01-15T06:21:52.581Z,4.60
2023-01-15T06:24:20.146Z,4.60
2023-01-15T06:26:47.226Z,4.60
2023-01-15T06:29:17.583Z,4.60
2023-01-15T06:31:44.802Z,4.60
2023-01-15T06:34:11.605Z,4.60
2023-01-15T06:36:38.459Z,4.60
2023-01-15T06:39:05.562Z,4.60
2023-01-15T06:41:50.876Z,4.70
2023-01-15T06:44:38.369Z,4.70
2023-01-15T06:47:21.080Z,4.70
2023-01-15T06:49:56.827Z,4.70
2023-01-15T06:52:28.144Z,4.90
2023-01-15T06:54:55.179Z,4.80
2023-01-15T06:57:22.451Z,4.70
2023-01-15T06:59:50.418Z,4.70
2023-01-15T07:02:18.361Z,4.60
2023-01-15T07:04:46.475Z,4.60
2023-01-15T07:07:14.057Z,4.70
2023-01-15T07:09:40.807Z,4.70
2023-01-15T07:12:07.639Z,4.80
2023-01-15T07:14:34.411Z,4.70
2023-01-15T07:17:01.315Z,4.80
2023-01-15T07:19:28.397Z,4.70
2023-01-15T07:21:55.435Z,4.70
2023-01-15T07:24:22.745Z,4.80
2023-01-15T07:26:49.803Z,5.00
2023-01-15T07:29:16.607Z,4.90
2023-01-15T07:31:43.491Z,4.80
2023-01-15T07:34:10.480Z,4.90
2023-01-15T07:36:37.908Z,4.90
2023-01-15T07:39:06.131Z,4.90
2023-01-15T07:41:51.927Z,4.90
2023-01-15T07:44:37.479Z,4.90
2023-01-15T07:47:27.806Z,4.90
2023-01-15T07:49:55.695Z,4.90
2023-01-15T07:52:22.955Z,4.90
2023-01-15T07:54:50.700Z,5.00
2023-01-15T07:57:21.320Z,4.90
2023-01-15T07:59:48.931Z,5.00
2023-01-15T08:02:15.702Z,5.10
2023-01-15T08:04:42.455Z,5.00
2023-01-15T08:07:09.677Z,5.00
2023-01-15T08:09:36.602Z,5.00
2023-01-15T08:12:22.817Z,5.00
2023-01-15T08:15:08.348Z,5.10
2023-01-15T08:17:36.348Z,5.10
2023-01-15T08:20:05.686Z,5.00
2023-01-15T08:22:32.559Z,4.90
2023-01-15T08:24:59.472Z,5.00
2023-01-15T08:27:26.639Z,4.90
2023-01-15T08:29:57.395Z,5.00
2023-01-15T08:32:24.801Z,5.10
2023-01-15T08:34:52.065Z,5.10
2023-01-15T08:37:18.898Z,5.20
2023-01-15T08:39:46.179Z,5.10
2023-01-15T08:42:13.168Z,5.20
2023-01-15T08:44:39.969Z,5.20
2023-01-15T08:47:06.779Z,5.30
2023-01-15T08:49:33.612Z,5.20
2023-01-15T08:52:01.053Z,5.40
2023-01-15T08:54:28.360Z,5.30
2023-01-15T08:56:55.447Z,5.40
2023-01-15T08:59:22.898Z,5.50
2023-01-15T09:01:49.801Z,5.60
2023-01-15T09:04:18.653Z,5.50
2023-01-15T09:06:46.765Z,5.40
2023-01-15T09:09:16.460Z,5.60
2023-01-15T09:11:44.333Z,5.50
2023-01-15T09:14:59.195Z,5.50
2023-01-15T09:17:02.384Z,5.50
2023-01-15T09:19:29.315Z,5.50
2023-01-15T09:21:56.074Z,5.80
2023-01-15T09:24:22.924Z,5.80
2023-01-15T09:26:53.173Z,5.80
2023-01-15T09:29:20.486Z,5.80
2023-01-15T09:31:47.507Z,5.70
2023-01-15T09:34:14.671Z,5.80
2023-01-15T09:36:41.672Z,5.90
2023-01-15T09:39:08.769Z,5.90
2023-01-15T09:42:12.946Z,5.80
2023-01-15T09:45:12.275Z,6.00
2023-01-15T09:47:57.090Z,6.20
2023-01-15T09:50:51.570Z,6.10
2023-01-15T09:53:37.740Z,6.20
2023-01-15T09:56:05.463Z,6.10
2023-01-15T09:58:38.875Z,6.20
2023-01-15T10:01:06.607Z,6.30
2023-01-15T10:03:42.754Z,6.30
2023-01-15T10:06:26.263Z,6.40
2023-01-15T10:09:14.514Z,6.10
2023-01-15T10:12:05.724Z,6.20
2023-01-15T10:14:43.623Z,6.40
2023-01-15T10:17:42.015Z,6.20
2023-01-15T10:20:46.952Z,6.30
2023-01-15T10:23:49.503Z,6.30
2023-01-15T10:26:44.613Z,6.30
2023-01-15T10:29:29.598Z,6.30
2023-01-15T10:32:14.460Z,6.30
2023-01-15T10:35:19.838Z,6.30
2023-01-15T10:38:02.031Z,6.30
2023-01-15T10:40:52.385Z,6.30
2023-01-15T10:43:44.184Z,6.40
2023-01-15T10:46:18.001Z,6.50
2023-01-15T10:48:57.541Z,6.50
2023-01-15T10:51:29.914Z,6.50
2023-01-15T10:54:25.946Z,6.30
2023-01-15T10:57:02.318Z,6.40
2023-01-15T10:59:42.314Z,6.30
2023-01-15T11:02:28.235Z,6.40
2023-01-15T11:04:56.553Z,6.50
2023-01-15T11:07:50.118Z,6.40
2023-01-15T11:10:26.358Z,6.50
2023-01-15T11:13:18.919Z,6.50
2023-01-15T11:16:07.107Z,6.60
2023-01-15T11:18:57.754Z,6.70
2023-01-15T11:21:25.841Z,6.90
2023-01-15T11:23:54.507Z,6.70
2023-01-15T11:26:27.608Z,6.80
2023-01-15T11:28:56.066Z,6.90
2023-01-15T11:31:23.014Z,6.80
2023-01-15T11:34:02.179Z,7.10
2023-01-15T11:36:30.180Z,6.80
2023-01-15T11:38:57.527Z,7.00
2023-01-15T11:41:49.838Z,6.90
2023-01-15T11:44:38.529Z,6.90
2023-01-15T11:47:31.152Z,7.00
2023-01-15T11:50:16.624Z,7.00
2023-01-15T11:52:50.812Z,6.90
2023-01-15T11:55:25.044Z,7.10
2023-01-15T11:57:53.057Z,7.00
2023-01-15T12:00:33.177Z,7.10
2023-01-15T12:03:05.044Z,7.20
2023-01-15T12:05:36.559Z,7.20
2023-01-15T12:08:32.673Z,7.20
2023-01-15T12:11:26.405Z,7.10
2023-01-15T12:14:21.832Z,7.10
2023-01-15T12:17:04.688Z,7.00
2023-01-15T12:20:08.742Z,7.10
2023-01-15T12:23:06.124Z,7.10
2023-01-15T12:25:45.741Z,7.20
2023-01-15T12:28:17.689Z,7.40
2023-01-15T12:31:01.929Z,7.40
2023-01-15T12:33:36.681Z,7.30
2023-01-15T12:36:30.371Z,7.40
2023-01-15T12:39:00.122Z,7.60
2023-01-15T12:41:57.337Z,7.70
2023-01-15T12:45:07.937Z,7.40
2023-01-15T12:47:48.799Z,7.40
2023-01-15T12:50:46.149Z,7.40
2023-01-15T12:53:32.640Z,7.50
2023-01-15T12:56:12.696Z,7.50
2023-01-15T12:58:46.570Z,7.50
2023-01-15T13:01:36.360Z,7.40
2023-01-15T13:04:37.612Z,7.60
2023-01-15T13:07:30.371Z,7.40
2023-01-15T13:10:15.898Z,7.30
2023-01-15T13:12:43.102Z,7.30
2023-01-15T13:15:15.530Z,7.40
2023-01-15T13:18:06.933Z,7.40
2023-01-15T13:20:55.210Z,7.50
2023-01-15T13:23:52.905Z,7.20
2023-01-15T13:26:38.392Z,7.30
2023-01-15T13:29:23.187Z,7.50
2023-01-15T13:32:00.048Z,7.40
2023-01-15T13:34:30.514Z,7.50
2023-01-15T13:37:04.508Z,7.50
2023-01-15T13:39:45.739Z,7.50
2023-01-15T13:42:37.898Z,7.50
2023-01-15T13:45:37.163Z,7.40
2023-01-15T13:48:30.443Z,7.50
2023-01-15T13:50:59.574Z,7.80
2023-01-15T13:53:49.082Z,8.70
2023-01-15T13:56:29.650Z,7.90
2023-01-15T13:59:05.422Z,7.90
2023-01-15T14:01:36.173Z,8.10
2023-01-15T14:04:06.472Z,8.00
2023-01-15T14:06:39.583Z,8.60
2023-01-15T14:09:09.942Z,9.10
2023-01-15T14:11:46.643Z,9.50
2023-01-15T14:14:36.815Z,9.80
2023-01-15T14:17:24.902Z,10.10
2023-01-15T14:20:28.181Z,10.00
2023-01-15T14:23:07.792Z,10.00
2023-01-15T14:26:00.052Z,9.70
2023-01-15T14:28:58.705Z,9.60
2023-01-15T14:31:57.939Z,9.60
2023-01-15T14:34:32.401Z,10.20
2023-01-15T14:37:27.207Z,10.40
2023-01-15T14:40:00.506Z,10.20
2023-01-15T14:42:50.899Z,10.10
2023-01-15T14:45:39.858Z,10.10
2023-01-15T14:48:18.118Z,9.80
2023-01-15T14:50:45.774Z,9.20
2023-01-15T14:53:18.623Z,9.00
2023-01-15T14:55:52.563Z,9.40
2023-01-15T14:58:57.948Z,9.80
2023-01-15T15:01:37.025Z,10.10
2023-01-15T15:04:23.690Z,10.80
2023-01-15T15:06:59.749Z,10.50
2023-01-15T15:09:31.725Z,10.70
2023-01-15T15:12:19.646Z,11.00
2023-01-15T15:14:52.723Z,10.80
2023-01-15T15:17:31.148Z,10.80
2023-01-15T15:20:06.722Z,10.20
2023-01-15T15:22:38.524Z,10.40
2023-01-15T15:25:19.843Z,10.70
2023-01-15T15:27:46.689Z,10.50
2023-01-15T15:30:16.303Z,10.10
2023-01-15T15:32:44.423Z,9.90
2023-01-15T15:35:28.244Z,10.00
2023-01-15T15:38:00.396Z,10.10
2023-01-15T15:40:33.749Z,10.10
2023-01-15T15:43:34.660Z,10.30
2023-01-15T15:46:39.779Z,10.00
2023-01-15T15:49:08.192Z,10.00
2023-01-15T15:52:19.527Z,9.90
2023-01-15T15:55:22.934Z,9.30
2023-01-15T15:58:16.956Z,9.10
2023-01-15T16:01:04.252Z,9.00
2023-01-15T16:03:33.518Z,8.80
2023-01-15T16:06:05.882Z,8.80
2023-01-15T16:08:34.817Z,8.40
2023-01-15T16:11:12.278Z,8.30
2023-01-15T16:13:43.789Z,7.90
2023-01-15T16:16:12.918Z,7.70
2023-01-15T16:18:45.663Z,7.60
2023-01-15T16:21:18.982Z,7.50
2023-01-15T16:24:02.497Z,7.50
2023-01-15T16:26:37.719Z,7.50
2023-01-15T16:29:15.853Z,7.40
2023-01-15T16:31:42.898Z,7.30
2023-01-15T16:34:21.687Z,7.30
2023-01-15T16:36:48.766Z,7.20
2023-01-15T16:39:44.942Z,7.10
2023-01-15T16:42:34.415Z,7.00
2023-01-15T16:45:23.110Z,6.90
2023-01-15T16:48:10.011Z,6.70
2023-01-15T16:50:38.818Z,6.90
2023-01-15T16:53:27.202Z,6.80
2023-01-15T16:56:01.488Z,6.80
2023-01-15T16:58:43.679Z,6.80
2023-01-15T17:01:44.208Z,6.30
2023-01-15T17:04:36.184Z,6.60
2023-01-15T17:07:07.619Z,6.50
2023-01-15T17:09:39.075Z,6.80
2023-01-15T17:12:25.342Z,6.80
2023-01-15T17:14:56.017Z,6.60
2023-01-15T17:17:23.209Z,6.60
2023-01-15T17:19:51.737Z,6.50
2023-01-15T17:22:30.688Z,6.50
2023-01-15T17:25:00.688Z,6.40
2023-01-15T17:27:30.251Z,6.30
2023-01-15T17:29:57.070Z,6.30
2023-01-15T17:32:42.376Z,6.20
2023-01-15T17:35:25.374Z,6.00
2023-01-15T17:37:52.300Z,6.20
2023-01-15T17:40:19.571Z,6.20
2023-01-15T17:42:47.088Z,6.40
2023-01-15T17:45:21.242Z,6.30
2023-01-15T17:47:48.166Z,6.10
2023-01-15T17:50:16.108Z,6.20
2023-01-15T17:52:43.911Z,6.10
2023-01-15T17:55:36.853Z,6.10
2023-01-15T17:58:22.587Z,6.10
2023-01-15T18:01:08.839Z,5.90
2023-01-15T18:03:56.641Z,5.80
2023-01-15T18:06:23.771Z,5.60
2023-01-15T18:08:55.547Z,5.50
2023-01-15T18:11:40.084Z,5.80
2023-01-15T18:14:06.894Z,6.00
2023-01-15T18:16:33.967Z,6.00
2023-01-15T18:19:00.730Z,5.80
2023-01-15T18:21:28.527Z,5.90
2023-01-15T18:23:55.734Z,6.20
2023-01-15T18:26:22.563Z,5.90
2023-01-15T18:28:49.500Z,6.00
2023-01-15T18:31:16.270Z,6.00
2023-01-15T18:33:43.099Z,6.20
2023-01-15T18:36:12.822Z,6.10
2023-01-15T18:38:43.739Z,6.10
2023-01-15T18:41:13.239Z,6.20
2023-01-15T18:43:58.486Z,6.40
2023-01-15T18:46:46.816Z,6.50
2023-01-15T18:49:13.787Z,6.30
2023-01-15T18:51:40.571Z,6.00
2023-01-15T18:54:08.873Z,5.70
2023-01-15T18:56:42.818Z,5.80
2023-01-15T18:59:14.370Z,6.00
2023-01-15T19:01:42.132Z,5.90
2023-01-15T19:04:11.547Z,5.60
2023-01-15T19:06:40.030Z,5.60
2023-01-15T19:09:08.443Z,5.70
2023-01-15T19:11:36.421Z,5.90
2023-01-15T19:14:21.972Z,5.90
2023-01-15T19:17:14.320Z,5.90
2023-01-15T19:19:43.344Z,5.80
2023-01-15T19:22:30.048Z,5.80
2023-01-15T19:24:57.145Z,5.80
2023-01-15T19:27:27.090Z,6.00
2023-01-15T19:29:57.063Z,6.10
2023-01-15T19:32:23.793Z,6.20
2023-01-15T19:34:54.221Z,6.40
2023-01-15T19:37:21.019Z,6.40
2023-01-15T19:39:47.767Z,6.50
2023-01-15T19:42:35.812Z,6.50
2023-01-15T19:45:21.191Z,6.30
2023-01-15T19:48:07.621Z,6.40
2023-01-15T19:50:41.599Z,6.20
2023-01-15T19:53:11.439Z,6.20
2023-01-15T19:55:41.686Z,6.20
2023-01-15T19:58:11.543Z,6.30
2023-01-15T20:00:40.041Z,6.30
2023-01-15T20:03:15.271Z,5.90
2023-01-15T20:05:46.789Z,6.20
2023-01-15T20:08:19.573Z,6.10
2023-01-15T20:10:50.835Z,6.20
2023-01-15T20:13:42.307Z,6.70
2023-01-15T20:16:17.908Z,6.40
2023-01-15T20:18:51.495Z,6.40
2023-01-15T20:21:18.978Z,7.40
2023-01-15T20:23:46.397Z,6.50
2023-01-15T20:26:14.747Z,6.40
2023-01-15T20:28:46.407Z,6.50
2023-01-15T20:31:23.733Z,6.40
2023-01-15T20:34:35.740Z,6.50
2023-01-15T20:37:02.543Z,6.30
2023-01-15T20:39:31.999Z,6.40
2023-01-15T20:42:18.475Z,6.80
2023-01-15T20:44:57.007Z,6.60
2023-01-15T20:47:45.625Z,6.40
2023-01-15T20:50:15.924Z,6.40
2023-01-15T20:52:51.540Z,6.30
2023-01-15T20:55:19.824Z,6.30
2023-01-15T20:57:50.280Z,6.80
2023-01-15T21:00:22.357Z,6.30
2023-01-15T21:02:59.172Z,6.30
2023-01-15T21:05:26.747Z,6.40
2023-01-15T21:07:54.398Z,6.40
2023-01-15T21:10:25.352Z,6.60
2023-01-15T21:13:11.023Z,6.40
2023-01-15T21:15:38.519Z,6.60
2023-01-15T21:18:06.373Z,5.70
2023-01-15T21:20:33.260Z,6.50
2023-01-15T21:23:00.535Z,6.60
2023-01-15T21:25:42.389Z,6.60
2023-01-15T21:28:09.224Z,6.30
2023-01-15T21:30:36.620Z,6.20
2023-01-15T21:33:04.568Z,6.30
2023-01-15T21:35:31.493Z,6.20
2023-01-15T21:37:59.175Z,6.00
2023-01-15T21:40:26.016Z,5.80
2023-01-15T21:43:11.522Z,5.70
2023-01-15T21:45:39.190Z,5.60
2023-01-15T21:48:06.180Z,5.40
2023-01-15T21:50:37.798Z,5.60
2023-01-15T21:53:04.774Z,5.80
2023-01-15T21:55:31.617Z,5.80
2023-01-15T21:57:59.196Z,5.90
2023-01-15T22:00:28.788Z,5.70
2023-01-15T22:02:56.965Z,5.70
2023-01-15T22:05:23.902Z,5.80
2023-01-15T22:07:50.757Z,5.60
2023-01-15T22:10:17.813Z,5.50
2023-01-15T22:12:44.791Z,5.40
2023-01-15T22:15:12.243Z,5.40
2023-01-15T22:17:39.260Z,5.30
2023-01-15T22:20:07.316Z,5.30
2023-01-15T22:22:36.582Z,5.20
2023-01-15T22:25:05.559Z,5.30
2023-01-15T22:27:34.714Z,5.30
2023-01-15T22:30:01.815Z,5.30
2023-01-15T22:32:28.751Z,5.20
2023-01-15T22:34:55.563Z,5.30
2023-01-15T22:37:22.637Z,5.40
2023-01-15T22:39:50.333Z,5.40
2023-01-15T22:42:31.104Z,5.60
2023-01-15T22:45:00.106Z,5.50
2023-01-15T22:47:28.757Z,5.50
2023-01-15T22:49:55.730Z,5.60
2023-01-15T22:52:25.242Z,5.60
2023-01-15T22:54:52.830Z,5.70
2023-01-15T22:57:20.127Z,5.70
2023-01-15T22:59:47.016Z,5.80
2023-01-15T23:02:14.074Z,5.90
2023-01-15T23:04:41.241Z,5.70
2023-01-15T23:07:08.893Z,5.70
2023-01-15T23:09:35.966Z,5.50
2023-01-15T23:12:02.832Z,5.40
2023-01-15T23:14:29.637Z,5.30
2023-01-15T23:16:56.443Z,5.00
2023-01-15T23:19:24.820Z,5.20
2023-01-15T23:21:51.877Z,5.30
2023-01-15T23:24:18.940Z,5.20
2023-01-15T23:26:45.656Z,5.30
2023-01-15T23:29:12.537Z,5.40
2023-01-15T23:31:39.281Z,5.40
2023-01-15T23:34:06.050Z,5.50
2023-01-15T23:36:32.876Z,5.50
2023-01-15T23:38:59.735Z,5.60
2023-01-15T23:41:45.551Z,5.70
2023-01-15T23:44:39.173Z,5.70
2023-01-15T23:47:07.722Z,5.60
2023-01-15T23:49:34.499Z,5.30
2023-01-15T23:52:01.633Z,5.30
2023-01-15T23:54:31.619Z,5.30
2023-01-15T23:57:00.422Z,5.40
2023-01-15T23:59:28.154Z,5.60
